Walnut Hill, Florida
Current Conditions -  °F | °C
As of 11:30 PM on Saturday 20 Dec 2014 (Local Time) from KNDZ Reporting Station
Overcast Overcast  
Wind Chill: 12°   Ceiling: 2900
Heat Index: 12°   Visibility: 10mi
Dew Point:   Wind: 9mph
Humidity: 83%   Direction: 30°NNE
Pressure: 30.13"   Gusts: NA
Location:  30.8697°N, 87.4663°W
Report Text: KNDZ 210530Z AUTO 03008KT 10SM BKN029 OVC039 12/09 A3013 RMK AO2 T01170089 $
Loading
Personal Weather Stations






























Interactive Weather Map New forecast layout! Learn more

10-Day Weather Forecast

Advertisements
Track Severe Weather on mobile